sensor_id;sensor_type;location;lat;lon;timestamp;P1;durP1;ratioP1;P2;durP2;ratioP2
24159;SDS011;62385;41.594;23.808;2023-12-07T00:01:34;3.50;;;2.60;;
24159;SDS011;62385;41.594;23.808;2023-12-07T00:04:01;3.57;;;2.47;;
24159;SDS011;62385;41.594;23.808;2023-12-07T00:06:26;1.70;;;1.50;;
24159;SDS011;62385;41.594;23.808;2023-12-07T00:08:52;5.83;;;2.47;;
24159;SDS011;62385;41.594;23.808;2023-12-07T00:11:17;4.47;;;1.83;;
24159;SDS011;62385;41.594;23.808;2023-12-07T00:13:43;1.63;;;0.97;;
24159;SDS011;62385;41.594;23.808;2023-12-07T00:16:09;2.50;;;1.63;;
24159;SDS011;62385;41.594;23.808;2023-12-07T00:18:35;3.13;;;1.20;;
24159;SDS011;62385;41.594;23.808;2023-12-07T00:21:01;12.07;;;1.70;;
24159;SDS011;62385;41.594;23.808;2023-12-07T00:23:26;5.33;;;1.67;;
24159;SDS011;62385;41.594;23.808;2023-12-07T00:25:52;0.77;;;0.57;;
24159;SDS011;62385;41.594;23.808;2023-12-07T00:28:18;2.10;;;1.50;;
24159;SDS011;62385;41.594;23.808;2023-12-07T00:30:43;1.40;;;1.27;;
24159;SDS011;62385;41.594;23.808;2023-12-07T00:33:09;3.97;;;1.63;;
24159;SDS011;62385;41.594;23.808;2023-12-07T00:35:35;1.17;;;0.93;;
24159;SDS011;62385;41.594;23.808;2023-12-07T00:38:01;0.40;;;0.27;;
24159;SDS011;62385;41.594;23.808;2023-12-07T00:40:27;0.93;;;0.57;;
24159;SDS011;62385;41.594;23.808;2023-12-07T00:42:53;3.53;;;0.87;;
24159;SDS011;62385;41.594;23.808;2023-12-07T00:45:19;2.47;;;1.67;;
24159;SDS011;62385;41.594;23.808;2023-12-07T00:47:45;0.97;;;0.63;;
24159;SDS011;62385;41.594;23.808;2023-12-07T00:50:13;1.03;;;0.83;;
24159;SDS011;62385;41.594;23.808;2023-12-07T00:52:39;0.63;;;0.50;;
24159;SDS011;62385;41.594;23.808;2023-12-07T00:55:05;0.87;;;0.57;;
24159;SDS011;62385;41.594;23.808;2023-12-07T00:57:31;0.60;;;0.57;;
24159;SDS011;62385;41.594;23.808;2023-12-07T00:59:56;1.37;;;0.47;;
24159;SDS011;62385;41.594;23.808;2023-12-07T01:02:22;0.50;;;0.43;;
24159;SDS011;62385;41.594;23.808;2023-12-07T01:04:48;0.40;;;0.37;;
24159;SDS011;62385;41.594;23.808;2023-12-07T01:07:14;2.70;;;1.57;;
24159;SDS011;62385;41.594;23.808;2023-12-07T01:09:39;1.00;;;0.90;;
24159;SDS011;62385;41.594;23.808;2023-12-07T01:12:05;0.90;;;0.70;;
24159;SDS011;62385;41.594;23.808;2023-12-07T01:14:31;0.50;;;0.47;;
24159;SDS011;62385;41.594;23.808;2023-12-07T01:16:56;0.47;;;0.47;;
24159;SDS011;62385;41.594;23.808;2023-12-07T01:19:22;2.30;;;1.00;;
24159;SDS011;62385;41.594;23.808;2023-12-07T01:21:47;0.80;;;0.43;;
24159;SDS011;62385;41.594;23.808;2023-12-07T01:24:13;0.57;;;0.57;;
24159;SDS011;62385;41.594;23.808;2023-12-07T01:26:39;1.10;;;0.97;;
24159;SDS011;62385;41.594;23.808;2023-12-07T01:29:04;0.30;;;0.20;;
24159;SDS011;62385;41.594;23.808;2023-12-07T01:31:30;0.77;;;0.77;;
24159;SDS011;62385;41.594;23.808;2023-12-07T01:33:56;2.53;;;1.20;;
24159;SDS011;62385;41.594;23.808;2023-12-07T01:36:21;2.57;;;0.70;;
24159;SDS011;62385;41.594;23.808;2023-12-07T01:38:47;1.40;;;1.27;;
24159;SDS011;62385;41.594;23.808;2023-12-07T01:41:16;0.97;;;0.57;;
24159;SDS011;62385;41.594;23.808;2023-12-07T01:43:47;1.80;;;1.20;;
24159;SDS011;62385;41.594;23.808;2023-12-07T01:46:13;1.80;;;1.17;;
24159;SDS011;62385;41.594;23.808;2023-12-07T01:48:40;1.87;;;1.03;;
24159;SDS011;62385;41.594;23.808;2023-12-07T01:51:06;0.50;;;0.40;;
24159;SDS011;62385;41.594;23.808;2023-12-07T01:53:32;2.57;;;0.90;;
24159;SDS011;62385;41.594;23.808;2023-12-07T01:55:58;5.33;;;2.43;;
24159;SDS011;62385;41.594;23.808;2023-12-07T01:58:24;1.90;;;1.23;;
24159;SDS011;62385;41.594;23.808;2023-12-07T02:00:50;4.53;;;2.20;;
24159;SDS011;62385;41.594;23.808;2023-12-07T02:03:17;3.20;;;2.87;;
24159;SDS011;62385;41.594;23.808;2023-12-07T02:05:45;2.00;;;1.87;;
24159;SDS011;62385;41.594;23.808;2023-12-07T02:08:13;4.67;;;2.33;;
24159;SDS011;62385;41.594;23.808;2023-12-07T02:10:39;6.40;;;3.13;;
24159;SDS011;62385;41.594;23.808;2023-12-07T02:13:05;8.20;;;3.63;;
24159;SDS011;62385;41.594;23.808;2023-12-07T02:15:32;4.27;;;2.67;;
24159;SDS011;62385;41.594;23.808;2023-12-07T02:18:14;15.07;;;3.33;;
24159;SDS011;62385;41.594;23.808;2023-12-07T02:23:14;2.20;;;1.37;;
24159;SDS011;62385;41.594;23.808;2023-12-07T02:25:51;6.17;;;0.83;;
24159;SDS011;62385;41.594;23.808;2023-12-07T02:28:54;0.93;;;0.70;;
24159;SDS011;62385;41.594;23.808;2023-12-07T02:31:20;1.43;;;1.33;;
24159;SDS011;62385;41.594;23.808;2023-12-07T02:33:45;1.23;;;0.93;;
24159;SDS011;62385;41.594;23.808;2023-12-07T02:36:12;0.40;;;0.30;;
24159;SDS011;62385;41.594;23.808;2023-12-07T02:38:40;0.37;;;0.20;;
24159;SDS011;62385;41.594;23.808;2023-12-07T02:41:07;2.23;;;1.07;;
24159;SDS011;62385;41.594;23.808;2023-12-07T02:43:33;3.27;;;1.20;;
24159;SDS011;62385;41.594;23.808;2023-12-07T02:45:59;2.27;;;1.63;;
24159;SDS011;62385;41.594;23.808;2023-12-07T02:48:25;2.30;;;1.37;;
24159;SDS011;62385;41.594;23.808;2023-12-07T02:50:51;1.63;;;0.60;;
24159;SDS011;62385;41.594;23.808;2023-12-07T02:53:17;3.30;;;2.30;;
24159;SDS011;62385;41.594;23.808;2023-12-07T02:55:43;5.93;;;2.33;;
24159;SDS011;62385;41.594;23.808;2023-12-07T02:58:08;2.47;;;2.10;;
24159;SDS011;62385;41.594;23.808;2023-12-07T03:00:34;5.57;;;2.10;;
24159;SDS011;62385;41.594;23.808;2023-12-07T03:03:00;2.23;;;1.97;;
24159;SDS011;62385;41.594;23.808;2023-12-07T03:05:25;3.23;;;1.60;;
24159;SDS011;62385;41.594;23.808;2023-12-07T03:07:51;9.13;;;2.10;;
24159;SDS011;62385;41.594;23.808;2023-12-07T03:10:16;2.47;;;0.80;;
24159;SDS011;62385;41.594;23.808;2023-12-07T03:12:42;1.67;;;1.03;;
24159;SDS011;62385;41.594;23.808;2023-12-07T03:15:08;2.30;;;1.57;;
24159;SDS011;62385;41.594;23.808;2023-12-07T03:17:35;1.63;;;1.53;;
24159;SDS011;62385;41.594;23.808;2023-12-07T03:20:01;3.80;;;2.20;;
24159;SDS011;62385;41.594;23.808;2023-12-07T03:22:26;2.87;;;1.50;;
24159;SDS011;62385;41.594;23.808;2023-12-07T03:24:52;4.83;;;1.97;;
24159;SDS011;62385;41.594;23.808;2023-12-07T03:27:18;4.17;;;2.27;;
24159;SDS011;62385;41.594;23.808;2023-12-07T03:29:44;3.23;;;2.40;;
24159;SDS011;62385;41.594;23.808;2023-12-07T03:32:10;6.00;;;2.70;;
24159;SDS011;62385;41.594;23.808;2023-12-07T03:34:36;3.73;;;2.33;;
24159;SDS011;62385;41.594;23.808;2023-12-07T03:37:01;1.60;;;1.37;;
24159;SDS011;62385;41.594;23.808;2023-12-07T03:39:28;4.00;;;1.30;;
24159;SDS011;62385;41.594;23.808;2023-12-07T03:41:54;2.50;;;2.23;;
24159;SDS011;62385;41.594;23.808;2023-12-07T03:44:20;3.90;;;1.83;;
24159;SDS011;62385;41.594;23.808;2023-12-07T03:46:46;2.53;;;2.07;;
24159;SDS011;62385;41.594;23.808;2023-12-07T03:49:11;2.70;;;2.03;;
24159;SDS011;62385;41.594;23.808;2023-12-07T03:51:37;3.83;;;2.17;;
24159;SDS011;62385;41.594;23.808;2023-12-07T03:54:03;5.70;;;2.43;;
24159;SDS011;62385;41.594;23.808;2023-12-07T03:56:32;7.20;;;2.40;;
24159;SDS011;62385;41.594;23.808;2023-12-07T03:58:58;2.67;;;1.03;;
24159;SDS011;62385;41.594;23.808;2023-12-07T04:01:24;5.70;;;2.30;;
24159;SDS011;62385;41.594;23.808;2023-12-07T04:03:55;3.77;;;3.23;;
24159;SDS011;62385;41.594;23.808;2023-12-07T04:06:22;4.73;;;1.93;;
24159;SDS011;62385;41.594;23.808;2023-12-07T04:08:48;4.43;;;2.93;;
24159;SDS011;62385;41.594;23.808;2023-12-07T04:11:14;1.90;;;1.77;;
24159;SDS011;62385;41.594;23.808;2023-12-07T04:13:41;2.80;;;1.60;;
24159;SDS011;62385;41.594;23.808;2023-12-07T04:16:08;3.83;;;1.77;;
24159;SDS011;62385;41.594;23.808;2023-12-07T04:18:34;4.37;;;2.13;;
24159;SDS011;62385;41.594;23.808;2023-12-07T04:21:00;3.13;;;2.23;;
24159;SDS011;62385;41.594;23.808;2023-12-07T04:23:26;1.53;;;1.13;;
24159;SDS011;62385;41.594;23.808;2023-12-07T04:25:52;1.90;;;1.23;;
24159;SDS011;62385;41.594;23.808;2023-12-07T04:28:17;4.40;;;3.07;;
24159;SDS011;62385;41.594;23.808;2023-12-07T04:30:43;6.80;;;2.87;;
24159;SDS011;62385;41.594;23.808;2023-12-07T04:33:09;16.87;;;5.17;;
24159;SDS011;62385;41.594;23.808;2023-12-07T04:35:34;3.80;;;3.07;;
24159;SDS011;62385;41.594;23.808;2023-12-07T04:38:00;4.60;;;1.53;;
24159;SDS011;62385;41.594;23.808;2023-12-07T04:40:26;2.70;;;1.43;;
24159;SDS011;62385;41.594;23.808;2023-12-07T04:42:52;22.17;;;1.97;;
24159;SDS011;62385;41.594;23.808;2023-12-07T04:45:18;1.67;;;1.13;;
24159;SDS011;62385;41.594;23.808;2023-12-07T04:47:44;4.63;;;2.13;;
24159;SDS011;62385;41.594;23.808;2023-12-07T04:50:10;6.13;;;1.93;;
24159;SDS011;62385;41.594;23.808;2023-12-07T04:52:36;4.27;;;2.70;;
24159;SDS011;62385;41.594;23.808;2023-12-07T04:55:01;6.73;;;4.00;;
24159;SDS011;62385;41.594;23.808;2023-12-07T04:57:27;4.23;;;3.07;;
24159;SDS011;62385;41.594;23.808;2023-12-07T04:59:53;3.20;;;2.40;;
24159;SDS011;62385;41.594;23.808;2023-12-07T05:02:18;2.70;;;2.07;;
24159;SDS011;62385;41.594;23.808;2023-12-07T05:04:45;9.20;;;3.70;;
24159;SDS011;62385;41.594;23.808;2023-12-07T05:07:11;5.50;;;3.63;;
24159;SDS011;62385;41.594;23.808;2023-12-07T05:09:38;2.30;;;2.10;;
24159;SDS011;62385;41.594;23.808;2023-12-07T05:12:04;6.17;;;3.27;;
24159;SDS011;62385;41.594;23.808;2023-12-07T05:14:30;2.83;;;2.57;;
24159;SDS011;62385;41.594;23.808;2023-12-07T05:16:56;3.53;;;1.57;;
24159;SDS011;62385;41.594;23.808;2023-12-07T05:19:22;1.43;;;1.03;;
24159;SDS011;62385;41.594;23.808;2023-12-07T05:21:48;4.03;;;2.03;;
24159;SDS011;62385;41.594;23.808;2023-12-07T05:24:15;2.43;;;2.03;;
24159;SDS011;62385;41.594;23.808;2023-12-07T05:26:41;2.83;;;2.60;;
24159;SDS011;62385;41.594;23.808;2023-12-07T05:29:08;5.90;;;2.33;;
24159;SDS011;62385;41.594;23.808;2023-12-07T05:31:33;9.67;;;4.93;;
24159;SDS011;62385;41.594;23.808;2023-12-07T05:34:00;6.77;;;3.47;;
24159;SDS011;62385;41.594;23.808;2023-12-07T05:36:26;5.07;;;2.50;;
24159;SDS011;62385;41.594;23.808;2023-12-07T05:38:52;6.90;;;2.37;;
24159;SDS011;62385;41.594;23.808;2023-12-07T05:41:17;5.17;;;3.07;;
24159;SDS011;62385;41.594;23.808;2023-12-07T05:43:43;2.70;;;2.30;;
24159;SDS011;62385;41.594;23.808;2023-12-07T05:46:09;5.30;;;2.43;;
24159;SDS011;62385;41.594;23.808;2023-12-07T05:48:35;4.73;;;1.93;;
24159;SDS011;62385;41.594;23.808;2023-12-07T05:51:04;5.30;;;3.03;;
24159;SDS011;62385;41.594;23.808;2023-12-07T05:53:30;4.20;;;2.57;;
24159;SDS011;62385;41.594;23.808;2023-12-07T05:55:58;3.57;;;2.40;;
24159;SDS011;62385;41.594;23.808;2023-12-07T05:58:24;3.77;;;2.87;;
24159;SDS011;62385;41.594;23.808;2023-12-07T06:00:49;8.67;;;5.20;;
24159;SDS011;62385;41.594;23.808;2023-12-07T06:03:15;8.20;;;3.87;;
24159;SDS011;62385;41.594;23.808;2023-12-07T06:05:41;1.70;;;1.60;;
24159;SDS011;62385;41.594;23.808;2023-12-07T06:08:07;2.80;;;2.57;;
24159;SDS011;62385;41.594;23.808;2023-12-07T06:10:33;5.70;;;2.50;;
24159;SDS011;62385;41.594;23.808;2023-12-07T06:12:59;5.27;;;2.70;;
24159;SDS011;62385;41.594;23.808;2023-12-07T06:15:26;4.23;;;2.50;;
24159;SDS011;62385;41.594;23.808;2023-12-07T06:17:53;6.43;;;3.40;;
24159;SDS011;62385;41.594;23.808;2023-12-07T06:20:19;11.67;;;4.97;;
24159;SDS011;62385;41.594;23.808;2023-12-07T06:22:45;6.13;;;2.97;;
24159;SDS011;62385;41.594;23.808;2023-12-07T06:25:11;4.47;;;3.33;;
24159;SDS011;62385;41.594;23.808;2023-12-07T06:27:38;9.27;;;2.27;;
24159;SDS011;62385;41.594;23.808;2023-12-07T06:30:04;2.97;;;1.70;;
24159;SDS011;62385;41.594;23.808;2023-12-07T06:32:31;2.40;;;1.27;;
24159;SDS011;62385;41.594;23.808;2023-12-07T06:34:57;5.13;;;1.73;;
24159;SDS011;62385;41.594;23.808;2023-12-07T06:37:23;1.70;;;1.50;;
24159;SDS011;62385;41.594;23.808;2023-12-07T06:39:52;4.60;;;2.77;;
24159;SDS011;62385;41.594;23.808;2023-12-07T06:42:18;3.93;;;2.43;;
24159;SDS011;62385;41.594;23.808;2023-12-07T06:44:45;15.47;;;3.67;;
24159;SDS011;62385;41.594;23.808;2023-12-07T06:47:13;4.03;;;2.83;;
24159;SDS011;62385;41.594;23.808;2023-12-07T06:49:39;5.60;;;2.63;;
24159;SDS011;62385;41.594;23.808;2023-12-07T06:52:05;7.13;;;3.23;;
24159;SDS011;62385;41.594;23.808;2023-12-07T06:54:30;4.43;;;2.77;;
24159;SDS011;62385;41.594;23.808;2023-12-07T06:56:56;7.90;;;3.50;;
24159;SDS011;62385;41.594;23.808;2023-12-07T06:59:22;6.70;;;3.63;;
24159;SDS011;62385;41.594;23.808;2023-12-07T07:01:47;7.63;;;4.00;;
24159;SDS011;62385;41.594;23.808;2023-12-07T07:04:14;7.13;;;4.13;;
24159;SDS011;62385;41.594;23.808;2023-12-07T07:06:40;6.23;;;3.60;;
24159;SDS011;62385;41.594;23.808;2023-12-07T07:09:06;4.93;;;3.00;;
24159;SDS011;62385;41.594;23.808;2023-12-07T07:11:32;6.20;;;2.90;;
24159;SDS011;62385;41.594;23.808;2023-12-07T07:13:59;3.10;;;2.10;;
24159;SDS011;62385;41.594;23.808;2023-12-07T07:16:25;4.23;;;2.60;;
24159;SDS011;62385;41.594;23.808;2023-12-07T07:18:51;3.63;;;2.13;;
24159;SDS011;62385;41.594;23.808;2023-12-07T07:21:16;6.27;;;3.27;;
24159;SDS011;62385;41.594;23.808;2023-12-07T07:23:44;3.47;;;2.47;;
24159;SDS011;62385;41.594;23.808;2023-12-07T07:26:10;6.13;;;4.60;;
24159;SDS011;62385;41.594;23.808;2023-12-07T07:28:35;4.57;;;3.17;;
24159;SDS011;62385;41.594;23.808;2023-12-07T07:31:01;8.33;;;4.70;;
24159;SDS011;62385;41.594;23.808;2023-12-07T07:33:28;5.53;;;4.33;;
24159;SDS011;62385;41.594;23.808;2023-12-07T07:35:53;6.53;;;1.80;;
24159;SDS011;62385;41.594;23.808;2023-12-07T07:38:20;4.73;;;3.50;;
24159;SDS011;62385;41.594;23.808;2023-12-07T07:40:46;6.00;;;3.13;;
24159;SDS011;62385;41.594;23.808;2023-12-07T07:43:13;4.33;;;2.43;;
24159;SDS011;62385;41.594;23.808;2023-12-07T07:45:39;3.43;;;2.87;;
24159;SDS011;62385;41.594;23.808;2023-12-07T07:48:05;6.13;;;3.43;;
24159;SDS011;62385;41.594;23.808;2023-12-07T07:50:31;7.50;;;2.87;;
24159;SDS011;62385;41.594;23.808;2023-12-07T07:53:00;8.20;;;4.73;;
24159;SDS011;62385;41.594;23.808;2023-12-07T07:55:26;10.37;;;7.17;;
24159;SDS011;62385;41.594;23.808;2023-12-07T07:57:52;13.73;;;7.57;;
24159;SDS011;62385;41.594;23.808;2023-12-07T08:00:18;5.47;;;3.80;;
24159;SDS011;62385;41.594;23.808;2023-12-07T08:02:44;24.57;;;4.77;;
24159;SDS011;62385;41.594;23.808;2023-12-07T08:05:11;32.40;;;12.70;;
24159;SDS011;62385;41.594;23.808;2023-12-07T08:07:38;13.13;;;5.13;;
24159;SDS011;62385;41.594;23.808;2023-12-07T08:10:06;7.37;;;2.93;;
24159;SDS011;62385;41.594;23.808;2023-12-07T08:12:32;6.17;;;4.07;;
24159;SDS011;62385;41.594;23.808;2023-12-07T08:14:58;7.70;;;2.67;;
24159;SDS011;62385;41.594;23.808;2023-12-07T08:17:24;7.63;;;4.90;;
24159;SDS011;62385;41.594;23.808;2023-12-07T08:19:51;4.83;;;3.53;;
24159;SDS011;62385;41.594;23.808;2023-12-07T08:22:17;9.93;;;4.30;;
24159;SDS011;62385;41.594;23.808;2023-12-07T08:24:43;9.77;;;4.33;;
24159;SDS011;62385;41.594;23.808;2023-12-07T08:27:09;9.97;;;4.20;;
24159;SDS011;62385;41.594;23.808;2023-12-07T08:29:34;3.47;;;2.80;;
24159;SDS011;62385;41.594;23.808;2023-12-07T08:32:01;9.77;;;3.70;;
24159;SDS011;62385;41.594;23.808;2023-12-07T08:34:27;7.90;;;3.77;;
24159;SDS011;62385;41.594;23.808;2023-12-07T08:36:54;3.00;;;2.27;;
24159;SDS011;62385;41.594;23.808;2023-12-07T08:39:20;5.23;;;3.43;;
24159;SDS011;62385;41.594;23.808;2023-12-07T08:41:45;4.80;;;4.33;;
24159;SDS011;62385;41.594;23.808;2023-12-07T08:44:11;8.10;;;3.70;;
24159;SDS011;62385;41.594;23.808;2023-12-07T08:46:37;7.50;;;4.27;;
24159;SDS011;62385;41.594;23.808;2023-12-07T08:49:03;7.13;;;3.83;;
24159;SDS011;62385;41.594;23.808;2023-12-07T08:51:28;4.77;;;2.27;;
24159;SDS011;62385;41.594;23.808;2023-12-07T08:53:55;2.80;;;2.27;;
24159;SDS011;62385;41.594;23.808;2023-12-07T08:56:20;7.87;;;3.43;;
24159;SDS011;62385;41.594;23.808;2023-12-07T08:58:46;2.83;;;1.67;;
24159;SDS011;62385;41.594;23.808;2023-12-07T09:01:12;9.87;;;5.70;;
24159;SDS011;62385;41.594;23.808;2023-12-07T09:03:37;4.23;;;3.23;;
24159;SDS011;62385;41.594;23.808;2023-12-07T09:06:03;5.00;;;4.07;;
24159;SDS011;62385;41.594;23.808;2023-12-07T09:08:30;10.67;;;3.87;;
24159;SDS011;62385;41.594;23.808;2023-12-07T09:10:56;9.30;;;3.00;;
24159;SDS011;62385;41.594;23.808;2023-12-07T09:13:21;7.33;;;3.77;;
24159;SDS011;62385;41.594;23.808;2023-12-07T09:15:47;5.30;;;4.27;;
24159;SDS011;62385;41.594;23.808;2023-12-07T09:18:13;12.03;;;6.10;;
24159;SDS011;62385;41.594;23.808;2023-12-07T09:20:41;4.10;;;2.63;;
24159;SDS011;62385;41.594;23.808;2023-12-07T09:23:13;5.53;;;3.00;;
24159;SDS011;62385;41.594;23.808;2023-12-07T09:25:42;5.63;;;3.10;;
24159;SDS011;62385;41.594;23.808;2023-12-07T09:28:08;6.03;;;3.50;;
24159;SDS011;62385;41.594;23.808;2023-12-07T09:30:34;7.30;;;3.33;;
24159;SDS011;62385;41.594;23.808;2023-12-07T09:33:00;8.67;;;4.60;;
24159;SDS011;62385;41.594;23.808;2023-12-07T09:35:28;4.60;;;3.23;;
24159;SDS011;62385;41.594;23.808;2023-12-07T09:37:53;5.73;;;4.20;;
24159;SDS011;62385;41.594;23.808;2023-12-07T09:40:20;4.87;;;3.27;;
24159;SDS011;62385;41.594;23.808;2023-12-07T09:42:47;8.13;;;4.00;;
24159;SDS011;62385;41.594;23.808;2023-12-07T09:45:13;20.23;;;3.63;;
24159;SDS011;62385;41.594;23.808;2023-12-07T09:47:41;5.93;;;3.63;;
24159;SDS011;62385;41.594;23.808;2023-12-07T09:50:08;5.77;;;2.90;;
24159;SDS011;62385;41.594;23.808;2023-12-07T09:52:34;4.53;;;3.57;;
24159;SDS011;62385;41.594;23.808;2023-12-07T09:55:05;11.70;;;3.80;;
24159;SDS011;62385;41.594;23.808;2023-12-07T09:57:32;6.53;;;4.47;;
24159;SDS011;62385;41.594;23.808;2023-12-07T09:59:59;4.73;;;2.60;;
24159;SDS011;62385;41.594;23.808;2023-12-07T10:02:25;3.87;;;3.47;;
24159;SDS011;62385;41.594;23.808;2023-12-07T10:05:06;12.20;;;6.00;;
24159;SDS011;62385;41.594;23.808;2023-12-07T10:07:33;3.80;;;3.27;;
24159;SDS011;62385;41.594;23.808;2023-12-07T10:10:00;6.80;;;4.47;;
24159;SDS011;62385;41.594;23.808;2023-12-07T10:12:27;6.63;;;3.00;;
24159;SDS011;62385;41.594;23.808;2023-12-07T10:14:52;6.63;;;5.00;;
24159;SDS011;62385;41.594;23.808;2023-12-07T10:17:18;5.23;;;3.33;;
24159;SDS011;62385;41.594;23.808;2023-12-07T10:19:43;3.67;;;2.33;;
24159;SDS011;62385;41.594;23.808;2023-12-07T10:22:15;6.33;;;3.40;;
24159;SDS011;62385;41.594;23.808;2023-12-07T10:24:41;10.63;;;5.07;;
24159;SDS011;62385;41.594;23.808;2023-12-07T10:27:07;6.87;;;4.13;;
24159;SDS011;62385;41.594;23.808;2023-12-07T10:29:37;8.47;;;4.10;;
24159;SDS011;62385;41.594;23.808;2023-12-07T10:32:03;6.43;;;3.37;;
24159;SDS011;62385;41.594;23.808;2023-12-07T10:34:30;7.40;;;3.20;;
24159;SDS011;62385;41.594;23.808;2023-12-07T10:36:58;3.03;;;2.40;;
24159;SDS011;62385;41.594;23.808;2023-12-07T10:39:24;7.83;;;3.07;;
24159;SDS011;62385;41.594;23.808;2023-12-07T10:41:52;6.10;;;3.13;;
24159;SDS011;62385;41.594;23.808;2023-12-07T10:44:26;5.33;;;3.83;;
24159;SDS011;62385;41.594;23.808;2023-12-07T10:46:54;5.17;;;2.97;;
24159;SDS011;62385;41.594;23.808;2023-12-07T10:49:21;5.63;;;3.80;;
24159;SDS011;62385;41.594;23.808;2023-12-07T10:51:56;5.30;;;3.23;;
24159;SDS011;62385;41.594;23.808;2023-12-07T10:54:27;3.90;;;2.33;;
24159;SDS011;62385;41.594;23.808;2023-12-07T10:56:59;7.10;;;3.30;;
24159;SDS011;62385;41.594;23.808;2023-12-07T10:59:29;5.67;;;3.30;;
24159;SDS011;62385;41.594;23.808;2023-12-07T11:01:56;4.67;;;2.13;;
24159;SDS011;62385;41.594;23.808;2023-12-07T11:04:22;8.83;;;4.70;;
24159;SDS011;62385;41.594;23.808;2023-12-07T11:06:50;8.73;;;2.40;;
24159;SDS011;62385;41.594;23.808;2023-12-07T11:09:23;5.50;;;3.50;;
24159;SDS011;62385;41.594;23.808;2023-12-07T11:12:04;3.27;;;2.13;;
24159;SDS011;62385;41.594;23.808;2023-12-07T11:14:36;7.67;;;2.87;;
24159;SDS011;62385;41.594;23.808;2023-12-07T11:17:03;4.57;;;2.50;;
24159;SDS011;62385;41.594;23.808;2023-12-07T11:22:00;6.83;;;2.47;;
24159;SDS011;62385;41.594;23.808;2023-12-07T11:24:31;4.80;;;2.30;;
24159;SDS011;62385;41.594;23.808;2023-12-07T11:26:57;9.27;;;3.00;;
24159;SDS011;62385;41.594;23.808;2023-12-07T11:29:23;4.60;;;2.97;;
24159;SDS011;62385;41.594;23.808;2023-12-07T11:31:50;14.40;;;3.60;;
24159;SDS011;62385;41.594;23.808;2023-12-07T11:34:36;7.30;;;2.63;;
24159;SDS011;62385;41.594;23.808;2023-12-07T11:37:02;3.67;;;2.43;;
24159;SDS011;62385;41.594;23.808;2023-12-07T11:39:29;6.87;;;2.73;;
24159;SDS011;62385;41.594;23.808;2023-12-07T11:42:05;4.23;;;3.67;;
24159;SDS011;62385;41.594;23.808;2023-12-07T11:44:39;5.07;;;2.57;;
24159;SDS011;62385;41.594;23.808;2023-12-07T11:47:06;6.00;;;3.77;;
24159;SDS011;62385;41.594;23.808;2023-12-07T11:49:33;5.53;;;1.87;;
24159;SDS011;62385;41.594;23.808;2023-12-07T11:51:59;7.37;;;2.40;;
24159;SDS011;62385;41.594;23.808;2023-12-07T11:54:28;5.63;;;2.80;;
24159;SDS011;62385;41.594;23.808;2023-12-07T11:56:57;6.47;;;3.93;;
24159;SDS011;62385;41.594;23.808;2023-12-07T11:59:23;3.90;;;2.23;;
24159;SDS011;62385;41.594;23.808;2023-12-07T12:01:51;5.00;;;2.30;;
24159;SDS011;62385;41.594;23.808;2023-12-07T12:04:17;4.43;;;3.03;;
24159;SDS011;62385;41.594;23.808;2023-12-07T12:06:43;8.07;;;3.03;;
24159;SDS011;62385;41.594;23.808;2023-12-07T12:09:12;4.47;;;2.67;;
24159;SDS011;62385;41.594;23.808;2023-12-07T12:11:43;4.93;;;2.03;;
24159;SDS011;62385;41.594;23.808;2023-12-07T12:14:10;6.73;;;2.83;;
24159;SDS011;62385;41.594;23.808;2023-12-07T12:16:35;5.80;;;2.03;;
24159;SDS011;62385;41.594;23.808;2023-12-07T12:19:02;3.33;;;1.90;;
24159;SDS011;62385;41.594;23.808;2023-12-07T12:21:28;7.73;;;1.77;;
24159;SDS011;62385;41.594;23.808;2023-12-07T12:23:54;4.83;;;2.47;;
24159;SDS011;62385;41.594;23.808;2023-12-07T12:26:19;2.63;;;1.90;;
24159;SDS011;62385;41.594;23.808;2023-12-07T12:28:45;10.90;;;4.77;;
24159;SDS011;62385;41.594;23.808;2023-12-07T12:31:11;11.47;;;5.50;;
24159;SDS011;62385;41.594;23.808;2023-12-07T12:33:37;6.47;;;3.30;;
24159;SDS011;62385;41.594;23.808;2023-12-07T12:36:04;5.40;;;2.43;;
24159;SDS011;62385;41.594;23.808;2023-12-07T12:38:32;3.10;;;1.83;;
24159;SDS011;62385;41.594;23.808;2023-12-07T12:40:58;23.87;;;5.90;;
24159;SDS011;62385;41.594;23.808;2023-12-07T12:43:24;2.53;;;2.10;;
24159;SDS011;62385;41.594;23.808;2023-12-07T12:45:50;2.20;;;2.00;;
24159;SDS011;62385;41.594;23.808;2023-12-07T12:48:15;4.50;;;1.67;;
24159;SDS011;62385;41.594;23.808;2023-12-07T12:50:41;2.73;;;1.80;;
24159;SDS011;62385;41.594;23.808;2023-12-07T12:53:10;4.73;;;2.20;;
24159;SDS011;62385;41.594;23.808;2023-12-07T12:55:39;5.93;;;2.37;;
24159;SDS011;62385;41.594;23.808;2023-12-07T12:58:06;2.63;;;1.97;;
24159;SDS011;62385;41.594;23.808;2023-12-07T13:00:33;10.37;;;4.87;;
24159;SDS011;62385;41.594;23.808;2023-12-07T13:03:00;3.23;;;1.70;;
24159;SDS011;62385;41.594;23.808;2023-12-07T13:05:28;2.80;;;2.03;;
24159;SDS011;62385;41.594;23.808;2023-12-07T13:07:54;3.67;;;1.90;;
24159;SDS011;62385;41.594;23.808;2023-12-07T13:10:20;1.20;;;1.07;;
24159;SDS011;62385;41.594;23.808;2023-12-07T13:12:46;4.90;;;3.17;;
24159;SDS011;62385;41.594;23.808;2023-12-07T13:15:12;6.97;;;4.37;;
24159;SDS011;62385;41.594;23.808;2023-12-07T13:17:39;4.00;;;3.07;;
24159;SDS011;62385;41.594;23.808;2023-12-07T13:20:08;9.83;;;5.40;;
24159;SDS011;62385;41.594;23.808;2023-12-07T13:22:41;2.93;;;2.60;;
24159;SDS011;62385;41.594;23.808;2023-12-07T13:25:08;5.60;;;3.27;;
24159;SDS011;62385;41.594;23.808;2023-12-07T13:27:35;10.27;;;3.73;;
24159;SDS011;62385;41.594;23.808;2023-12-07T13:30:04;5.73;;;3.50;;
24159;SDS011;62385;41.594;23.808;2023-12-07T13:32:34;6.97;;;3.80;;
24159;SDS011;62385;41.594;23.808;2023-12-07T13:35:02;2.83;;;2.17;;
24159;SDS011;62385;41.594;23.808;2023-12-07T13:37:30;2.43;;;1.97;;
24159;SDS011;62385;41.594;23.808;2023-12-07T13:39:55;11.43;;;2.20;;
24159;SDS011;62385;41.594;23.808;2023-12-07T13:42:26;4.47;;;3.07;;
24159;SDS011;62385;41.594;23.808;2023-12-07T13:44:53;5.77;;;2.80;;
24159;SDS011;62385;41.594;23.808;2023-12-07T13:47:23;4.83;;;2.63;;
24159;SDS011;62385;41.594;23.808;2023-12-07T13:50:01;9.60;;;4.27;;
24159;SDS011;62385;41.594;23.808;2023-12-07T13:52:29;6.00;;;3.63;;
24159;SDS011;62385;41.594;23.808;2023-12-07T13:54:55;5.63;;;2.90;;
24159;SDS011;62385;41.594;23.808;2023-12-07T13:57:22;6.03;;;3.53;;
24159;SDS011;62385;41.594;23.808;2023-12-07T13:59:49;6.00;;;2.43;;
24159;SDS011;62385;41.594;23.808;2023-12-07T14:02:16;3.87;;;2.23;;
24159;SDS011;62385;41.594;23.808;2023-12-07T14:04:42;3.67;;;1.60;;
24159;SDS011;62385;41.594;23.808;2023-12-07T14:07:08;4.93;;;2.87;;
24159;SDS011;62385;41.594;23.808;2023-12-07T14:09:42;7.40;;;3.50;;
24159;SDS011;62385;41.594;23.808;2023-12-07T14:12:11;7.00;;;3.70;;
24159;SDS011;62385;41.594;23.808;2023-12-07T14:14:45;16.47;;;6.63;;
24159;SDS011;62385;41.594;23.808;2023-12-07T14:17:15;14.83;;;6.40;;
24159;SDS011;62385;41.594;23.808;2023-12-07T14:19:41;17.23;;;6.93;;
24159;SDS011;62385;41.594;23.808;2023-12-07T14:22:08;17.50;;;4.73;;
24159;SDS011;62385;41.594;23.808;2023-12-07T14:24:37;8.53;;;5.20;;
24159;SDS011;62385;41.594;23.808;2023-12-07T14:27:03;9.73;;;5.27;;
24159;SDS011;62385;41.594;23.808;2023-12-07T14:29:29;9.33;;;4.93;;
24159;SDS011;62385;41.594;23.808;2023-12-07T14:31:57;7.63;;;5.40;;
24159;SDS011;62385;41.594;23.808;2023-12-07T14:34:23;14.80;;;4.97;;
24159;SDS011;62385;41.594;23.808;2023-12-07T14:36:52;14.67;;;4.70;;